Time,TemperatureF,DewpointF,PressureIn,WindDirection,WindDirectionDegrees,WindSpeedMPH,WindSpeedGustMPH,Humidity,HourlyPrecipIn,Conditions,Clouds,dailyrainin,SoftwareType,DateUTC
2013-03-13 00:00:00,40.5,31.5,29.91,North,0,0.0,0.0,70,0.00,,CLR,0.00,VWS V14.00,2013-03-13 04:00:00,
2013-03-13 00:15:00,39.8,31.5,29.91,North,0,0.0,1.0,72,0.00,,CLR,0.00,VWS V14.00,2013-03-13 04:15:00,
2013-03-13 00:30:00,38.9,31.3,29.91,North,0,0.0,0.0,74,0.00,,CLR,0.00,VWS V14.00,2013-03-13 04:30:00,
2013-03-13 00:45:00,38.2,31.3,29.92,North,0,0.0,0.0,76,0.00,,CLR,0.00,VWS V14.00,2013-03-13 04:45:00,
2013-03-13 01:00:00,37.8,31.6,29.91,North,0,0.0,0.0,78,0.00,,CLR,0.00,VWS V14.00,2013-03-13 05:00:00,
2013-03-13 01:15:00,37.0,31.1,29.92,North,0,0.0,0.0,79,0.00,,CLR,0.00,VWS V14.00,2013-03-13 05:15:00,
2013-03-13 01:30:00,36.6,30.7,29.92,North,0,0.0,0.0,79,0.00,,CLR,0.00,VWS V14.00,2013-03-13 05:30:00,
2013-03-13 01:45:00,36.3,31.0,29.92,North,0,0.0,0.0,81,0.00,,CLR,0.00,VWS V14.00,2013-03-13 05:45:00,
2013-03-13 02:00:00,35.8,30.2,29.92,North,0,0.0,0.0,80,0.00,,CLR,0.00,VWS V14.00,2013-03-13 06:00:00,
2013-03-13 02:15:00,35.3,30.4,29.93,North,0,0.0,0.0,82,0.00,,CLR,0.00,VWS V14.00,2013-03-13 06:15:00,
2013-03-13 02:30:00,34.9,30.0,29.93,North,0,0.0,0.0,82,0.00,,CLR,0.00,VWS V14.00,2013-03-13 06:30:00,
2013-03-13 02:45:00,34.9,30.3,29.93,North,0,0.0,0.0,83,0.00,,CLR,0.00,VWS V14.00,2013-03-13 06:45:00,
2013-03-13 03:00:00,34.7,30.1,29.93,North,0,0.0,0.0,83,0.00,,CLR,0.00,VWS V14.00,2013-03-13 07:00:00,
2013-03-13 03:15:00,34.3,29.7,29.93,North,0,0.0,0.0,83,0.00,,CLR,0.00,VWS V14.00,2013-03-13 07:15:00,
2013-03-13 03:30:00,34.0,29.4,29.93,North,0,0.0,0.0,83,0.00,,CLR,0.00,VWS V14.00,2013-03-13 07:30:00,
2013-03-13 03:45:00,34.0,29.7,29.93,North,0,0.0,0.0,84,0.00,,CLR,0.00,VWS V14.00,2013-03-13 07:45:00,
2013-03-13 04:00:00,34.9,30.9,29.93,North,0,0.0,1.0,85,0.00,,CLR,0.00,VWS V14.00,2013-03-13 08:00:00,
2013-03-13 04:15:00,35.2,30.3,29.95,North,0,0.0,1.0,82,0.00,,CLR,0.00,VWS V14.00,2013-03-13 08:15:00,
2013-03-13 04:30:00,35.5,30.6,29.95,North,0,0.0,0.0,82,0.00,,CLR,0.00,VWS V14.00,2013-03-13 08:30:00,
2013-03-13 04:45:00,35.8,30.9,29.95,North,0,0.0,1.0,82,0.00,,CLR,0.00,VWS V14.00,2013-03-13 08:45:00,
2013-03-13 05:00:00,36.3,30.4,29.96,North,0,0.0,2.0,79,0.00,,CLR,0.00,VWS V14.00,2013-03-13 09:00:00,
2013-03-13 05:15:00,36.9,28.7,29.96,North,0,0.0,3.0,72,0.00,,CLR,0.00,VWS V14.00,2013-03-13 09:15:00,
2013-03-13 05:30:00,37.2,28.3,29.97,North,0,1.0,2.0,70,0.00,,CLR,0.00,VWS V14.00,2013-03-13 09:30:00,
2013-03-13 05:45:00,37.3,27.7,29.97,North,0,0.0,2.0,68,0.00,,CLR,0.00,VWS V14.00,2013-03-13 09:45:00,
2013-03-13 06:00:00,37.0,27.1,29.97,North,0,0.0,1.0,67,0.00,,CLR,0.00,VWS V14.00,2013-03-13 10:00:00,
2013-03-13 06:15:00,36.6,26.7,29.97,North,0,0.0,0.0,67,0.00,,CLR,0.00,VWS V14.00,2013-03-13 10:15:00,
2013-03-13 06:30:00,36.3,26.8,29.98,North,0,0.0,0.0,68,0.00,,CLR,0.00,VWS V14.00,2013-03-13 10:30:00,
2013-03-13 06:45:00,36.3,25.7,29.98,North,0,1.0,1.0,65,0.00,,CLR,0.00,VWS V14.00,2013-03-13 10:45:00,
2013-03-13 07:00:00,36.9,25.9,29.98,North,0,0.0,2.0,64,0.00,,CLR,0.00,VWS V14.00,2013-03-13 11:00:00,
2013-03-13 07:15:00,37.6,25.0,29.98,North,0,0.0,1.0,60,0.00,,CLR,0.00,VWS V14.00,2013-03-13 11:15:00,
2013-03-13 07:30:00,38.8,25.3,29.98,North,0,0.0,2.0,58,0.00,,CLR,0.00,VWS V14.00,2013-03-13 11:30:00,
2013-03-13 07:45:00,40.2,25.8,29.98,North,0,4.0,5.0,56,0.00,,CLR,0.00,VWS V14.00,2013-03-13 11:45:00,
2013-03-13 08:00:00,41.8,25.0,29.98,North,0,1.0,5.0,51,0.00,,CLR,0.00,VWS V14.00,2013-03-13 12:00:00,
2013-03-13 08:15:00,43.5,25.1,29.98,North,0,1.0,4.0,48,0.00,,CLR,0.00,VWS V14.00,2013-03-13 12:15:00,
2013-03-13 08:30:00,44.8,24.2,29.98,North,354,1.0,6.0,44,0.00,,CLR,0.00,VWS V14.00,2013-03-13 12:30:00,
2013-03-13 08:45:00,46.2,23.8,29.98,North,350,2.0,8.0,41,0.00,,CLR,0.00,VWS V14.00,2013-03-13 12:45:00,
2013-03-13 09:00:00,47.6,22.0,29.98,North,350,4.0,10.0,36,0.00,,CLR,0.00,VWS V14.00,2013-03-13 13:00:00,
2013-03-13 09:15:00,49.1,22.0,29.98,North,357,3.0,6.0,34,0.00,,CLR,0.00,VWS V14.00,2013-03-13 13:15:00,
2013-03-13 09:30:00,49.2,22.7,29.97,North,356,0.0,3.0,35,0.00,,CLR,0.00,VWS V14.00,2013-03-13 13:30:00,
2013-03-13 09:45:00,51.4,24.0,29.98,NNW,346,3.0,7.0,34,0.00,,CLR,0.00,VWS V14.00,2013-03-13 13:45:00,
2013-03-13 10:15:00,51.4,23.3,29.98,North,352,7.0,7.0,33,0.00,,CLR,0.00,VWS V14.00,2013-03-13 14:15:00,
2013-03-13 10:30:00,51.4,23.3,29.97,North,352,7.0,7.0,33,0.00,,CLR,0.00,VWS V14.00,2013-03-13 14:30:00,
2013-03-13 10:45:00,51.4,23.3,29.97,North,352,7.0,7.0,33,0.00,,CLR,0.00,VWS V14.00,2013-03-13 14:45:00,
2013-03-13 11:00:00,52.3,25.5,29.97,NNW,347,11.0,13.0,35,0.00,,CLR,0.00,VWS V14.00,2013-03-13 15:00:00,
2013-03-13 11:15:00,50.4,24.5,29.97,North,356,6.0,14.0,36,0.00,,SCT080,0.00,VWS V14.00,2013-03-13 15:15:00,
2013-03-13 11:30:00,50.2,24.3,29.97,North,353,6.0,17.0,36,0.00,,SCT080,0.00,VWS V14.00,2013-03-13 15:30:00,
2013-03-13 11:45:00,49.8,24.6,29.97,North,356,6.0,18.0,37,0.00,,SCT080,0.00,VWS V14.00,2013-03-13 15:45:00,
2013-03-13 12:00:00,50.5,25.9,29.96,North,357,6.0,13.0,38,0.00,,BKN075,0.00,VWS V14.00,2013-03-13 16:00:00,
2013-03-13 12:15:00,52.6,26.4,29.95,NNW,344,5.0,13.0,36,0.00,,BKN075,0.00,VWS V14.00,2013-03-13 16:15:00,
2013-03-13 12:30:00,52.9,25.3,29.94,NNW,339,12.0,20.0,34,0.00,,BKN075,0.00,VWS V14.00,2013-03-13 16:30:00,
2013-03-13 12:45:00,51.3,24.6,29.94,North,357,6.0,16.0,35,0.00,,BKN075,0.00,VWS V14.00,2013-03-13 16:45:00,
2013-03-13 13:00:00,51.4,23.3,29.94,North,350,10.0,14.0,33,0.00,,BKN070,0.00,VWS V14.00,2013-03-13 17:00:00,
2013-03-13 13:15:00,51.7,24.3,29.93,NNW,340,6.0,17.0,34,0.00,,BKN070,0.00,VWS V14.00,2013-03-13 17:15:00,
2013-03-13 13:30:00,52.3,23.3,29.92,North,354,5.0,14.0,32,0.00,,BKN070,0.00,VWS V14.00,2013-03-13 17:30:00,
2013-03-13 13:45:00,52.8,23.0,29.92,NNW,339,3.0,16.0,31,0.00,,BKN070,0.00,VWS V14.00,2013-03-13 17:45:00,
2013-03-13 14:00:00,51.4,22.5,29.92,North,0,8.0,13.0,32,0.00,,BKN085,0.00,VWS V14.00,2013-03-13 18:00:00,
2013-03-13 14:15:00,51.1,22.3,29.92,North,356,10.0,13.0,32,0.00,,BKN085,0.00,VWS V14.00,2013-03-13 18:15:00,
2013-03-13 14:30:00,50.8,20.5,29.91,North,359,14.0,14.0,30,0.00,,BKN085,0.00,VWS V14.00,2013-03-13 18:30:00,
2013-03-13 14:45:00,52.3,20.2,29.91,NNW,347,9.0,21.0,28,0.00,,BKN085,0.00,VWS V14.00,2013-03-13 18:45:00,
2013-03-13 15:00:00,51.7,19.7,29.92,North,359,6.0,22.0,28,0.00,,BKN085,0.00,VWS V14.00,2013-03-13 19:00:00,
2013-03-13 15:15:00,52.2,19.2,29.92,North,354,12.0,20.0,27,0.00,,BKN080,0.00,VWS V14.00,2013-03-13 19:15:00,
2013-03-13 15:30:00,51.4,19.4,29.93,North,0,7.0,16.0,28,0.00,,BKN080,0.00,VWS V14.00,2013-03-13 19:30:00,
2013-03-13 15:45:00,51.7,19.7,29.93,North,0,4.0,18.0,28,0.00,,BKN080,0.00,VWS V14.00,2013-03-13 19:45:00,
2013-03-13 16:00:00,51.0,19.9,29.94,North,0,2.0,17.0,29,0.00,,SCT080,0.00,VWS V14.00,2013-03-13 20:00:00,
2013-03-13 16:30:00,49.8,21.1,29.95,North,357,3.0,14.0,32,0.00,,SCT080,0.00,VWS V14.00,2013-03-13 20:30:00,
2013-03-13 16:45:00,49.2,20.6,29.96,North,0,3.0,19.0,32,0.00,,SCT080,0.00,VWS V14.00,2013-03-13 20:45:00,
2013-03-13 17:00:00,48.6,20.1,29.97,North,0,12.0,17.0,32,0.00,,SCT070,0.00,VWS V14.00,2013-03-13 21:00:00,
2013-03-13 17:15:00,47.7,20.0,29.97,North,0,6.0,16.0,33,0.00,,SCT070,0.00,VWS V14.00,2013-03-13 21:15:00,
2013-03-13 17:16:00,50.4,20.9,29.94,North,359,6.0,16.0,31,0.00,,SCT080,0.00,VWS V14.00,2013-03-13 21:16:00,
2013-03-13 17:30:00,47.0,20.1,29.98,North,0,7.0,18.0,34,0.00,,SCT070,0.00,VWS V14.00,2013-03-13 21:30:00,
2013-03-13 17:45:00,46.2,20.7,29.98,North,0,4.0,13.0,36,0.00,,SCT070,0.00,VWS V14.00,2013-03-13 21:45:00,
2013-03-13 18:15:00,44.6,19.3,29.99,North,0,2.0,11.0,36,0.00,,FEW070,0.00,VWS V14.00,2013-03-13 22:15:00,
2013-03-13 19:01:00,45.2,20.5,29.98,North,0,7.0,14.0,37,0.00,,FEW070,0.00,VWS V14.00,2013-03-13 23:01:00,
2013-03-13 19:31:00,43.8,20.5,30.00,North,0,2.0,11.0,39,0.00,,FEW070,0.00,VWS V14.00,2013-03-13 23:31:00,
2013-03-13 19:46:00,42.9,20.3,30.00,North,0,2.0,13.0,40,0.00,,FEW070,0.00,VWS V14.00,2013-03-13 23:46:00,
2013-03-13 20:01:00,42.2,20.2,30.01,North,0,3.0,13.0,41,0.00,,FEW070,0.00,VWS V14.00,2013-03-14 00:01:00,
2013-03-13 20:17:00,41.6,20.2,30.02,North,0,7.0,15.0,42,0.00,,FEW070,0.00,VWS V14.00,2013-03-14 00:17:00,
2013-03-13 20:31:00,41.1,20.3,30.03,North,0,5.0,13.0,43,0.00,,FEW070,0.00,VWS V14.00,2013-03-14 00:31:00,
2013-03-13 20:46:00,40.3,20.7,30.03,North,0,5.0,17.0,45,0.00,,FEW070,0.00,VWS V14.00,2013-03-14 00:46:00,
2013-03-13 21:01:00,39.9,20.3,30.03,North,0,0.0,17.0,45,0.00,,FEW065,0.00,VWS V14.00,2013-03-14 01:01:00,
2013-03-13 21:17:00,39.3,20.8,30.04,North,0,9.0,12.0,47,0.00,,FEW065,0.00,VWS V14.00,2013-03-14 01:17:00,
2013-03-13 21:31:00,38.9,18.9,30.05,North,0,6.0,13.0,44,0.00,,FEW065,0.00,VWS V14.00,2013-03-14 01:31:00,
2013-03-13 21:45:00,36.6,18.8,30.08,North,0,0.0,7.0,48,0.00,,CLR,0.00,VWS V14.00,2013-03-14 01:45:00,
2013-03-13 21:46:00,38.3,18.8,30.06,North,0,7.0,12.0,45,0.00,,FEW065,0.00,VWS V14.00,2013-03-14 01:46:00,
2013-03-13 22:01:00,38.0,18.6,30.06,North,0,3.0,13.0,45,0.00,,CLR,0.00,VWS V14.00,2013-03-14 02:01:00,
2013-03-13 22:15:00,35.6,17.9,30.08,North,0,0.0,8.0,48,0.00,,CLR,0.00,VWS V14.00,2013-03-14 02:15:00,
2013-03-13 22:16:00,37.6,18.2,30.05,North,0,4.0,17.0,45,0.00,,CLR,0.00,VWS V14.00,2013-03-14 02:16:00,
2013-03-13 22:30:00,35.3,17.1,30.08,North,0,2.0,8.0,47,0.00,,CLR,0.00,VWS V14.00,2013-03-14 02:30:00,
2013-03-13 22:31:00,37.0,17.1,30.06,North,0,1.0,21.0,44,0.00,,CLR,0.00,VWS V14.00,2013-03-14 02:31:00,
2013-03-13 22:45:00,35.0,15.3,30.09,North,0,6.0,9.0,44,0.00,,CLR,0.00,VWS V14.00,2013-03-14 02:45:00,
2013-03-13 23:00:00,34.7,15.0,30.09,North,0,3.0,12.0,44,0.00,,CLR,0.00,VWS V14.00,2013-03-14 03:00:00,
2013-03-13 23:01:00,36.0,18.2,30.08,North,0,5.0,12.0,48,0.00,,CLR,0.00,VWS V14.00,2013-03-14 03:01:00,
2013-03-13 23:15:00,34.4,14.2,30.10,North,0,5.0,9.0,43,0.00,,CLR,0.00,VWS V14.00,2013-03-14 03:15:00,
2013-03-13 23:30:00,34.0,13.9,30.10,North,0,3.0,11.0,43,0.00,,CLR,0.00,VWS V14.00,2013-03-14 03:30:00,